Station Historical Data
Daily Summary for February 7, 2017 Units:  English    Metric   Both
« Previous Day
Next Day »
Daily Weekly Monthly Yearly Custom
  High: Low: Average:
Temperature: 55.1 °F 29.6 °F 38.6 °F
Dew Point: 50.5 °F 22.0 °F 33.9 °F
Humidity: 96% 72% 83%
Wind Speed: 19.0mph 0.0mph 5.3mph
Wind Gust: 40.0mph - -
Wind- - East
Pressure: 29.91 in 29.29 in -
Precipitation: 0.00 in    
Historical Graphs
 
 
Tabular Data for February 7, 2017
Time Temperature Dew Point Pressure Wind Wind Speed Wind Gust Humidity Rainfall Rate (Hourly)
00:04 30.1 °F 22.5 °F 29.91 in NE 1.0 mph 6.0 mph 73% 0.00 in
00:09 30.1 °F 22.5 °F 29.91 in ESE 2.0 mph 6.0 mph 73% 0.00 in
00:14 30.0 °F 22.4 °F 29.90 in East 6.0 mph 6.0 mph 73% 0.00 in
00:19 29.9 °F 22.3 °F 29.89 in ENE 1.0 mph 6.0 mph 73% 0.00 in
00:24 29.9 °F 22.3 °F 29.90 in ENE 2.0 mph 7.0 mph 73% 0.00 in
00:29 29.8 °F 22.2 °F 29.89 in ENE 2.0 mph 7.0 mph 73% 0.00 in
00:34 29.7 °F 22.1 °F 29.89 in ENE 2.0 mph 6.0 mph 73% 0.00 in
00:39 29.7 °F 22.1 °F 29.89 in ENE 2.0 mph 6.0 mph 73% 0.00 in
00:44 29.6 °F 22.0 °F 29.88 in ENE 3.0 mph 5.0 mph 73% 0.00 in
00:49 29.6 °F 22.0 °F 29.88 in East 3.0 mph 6.0 mph 73% 0.00 in
00:54 29.6 °F 22.0 °F 29.88 in East 5.0 mph 6.0 mph 73% 0.00 in
00:59 29.7 °F 22.1 °F 29.87 in ENE 3.0 mph 6.0 mph 73% 0.00 in
01:04 29.7 °F 22.1 °F 29.87 in ENE 2.0 mph 5.0 mph 73% 0.00 in
01:09 29.8 °F 22.2 °F 29.88 in NE 3.0 mph 5.0 mph 73% 0.00 in
01:14 30.0 °F 22.4 °F 29.88 in ENE 2.0 mph 5.0 mph 73% 0.00 in
01:19 30.1 °F 22.5 °F 29.87 in NE 3.0 mph 4.0 mph 73% 0.00 in
01:24 30.1 °F 22.5 °F 29.87 in NE 1.0 mph 4.0 mph 73% 0.00 in
01:29 30.2 °F 22.6 °F 29.87 in NE 2.0 mph 4.0 mph 73% 0.00 in
01:34 30.3 °F 22.7 °F 29.86 in NE 3.0 mph 6.0 mph 73% 0.00 in
01:39 30.5 °F 22.9 °F 29.86 in NE 3.0 mph 6.0 mph 73% 0.00 in
01:44 30.5 °F 22.9 °F 29.86 in NE 3.0 mph 5.0 mph 73% 0.00 in
01:49 30.6 °F 23.0 °F 29.86 in NE 3.0 mph 5.0 mph 73% 0.00 in
01:54 30.5 °F 22.9 °F 29.86 in NE 2.0 mph 5.0 mph 73% 0.00 in
01:59 30.7 °F 23.1 °F 29.86 in NE 2.0 mph 6.0 mph 73% 0.00 in
02:04 30.8 °F 23.2 °F 29.86 in NE 3.0 mph 6.0 mph 73% 0.00 in
02:09 31.0 °F 23.4 °F 29.86 in NNE 3.0 mph 5.0 mph 73% 0.00 in
02:14 31.1 °F 23.5 °F 29.85 in ENE 3.0 mph 4.0 mph 73% 0.00 in
02:19 31.2 °F 23.5 °F 29.85 in NE 3.0 mph 8.0 mph 73% 0.00 in
02:24 31.4 °F 23.7 °F 29.85 in NNE 2.0 mph 7.0 mph 73% 0.00 in
02:29 31.4 °F 23.4 °F 29.85 in NE 1.0 mph 6.0 mph 72% 0.00 in
02:34 31.6 °F 23.9 °F 29.85 in NE 2.0 mph 6.0 mph 73% 0.00 in
02:39 31.7 °F 23.7 °F 29.85 in NE 3.0 mph 6.0 mph 72% 0.00 in
02:44 31.7 °F 23.7 °F 29.85 in NE 3.0 mph 6.0 mph 72% 0.00 in
02:49 31.7 °F 23.7 °F 29.85 in NE 3.0 mph 7.0 mph 72% 0.00 in
02:54 31.8 °F 24.1 °F 29.84 in NE 3.0 mph 7.0 mph 73% 0.00 in
02:59 31.8 °F 23.8 °F 29.84 in NE 4.0 mph 8.0 mph 72% 0.00 in
03:04 31.9 °F 23.9 °F 29.84 in NE 4.0 mph 8.0 mph 72% 0.00 in
03:09 31.9 °F 23.9 °F 29.83 in NE 3.0 mph 7.0 mph 72% 0.00 in
03:14 31.9 °F 23.9 °F 29.84 in NE 3.0 mph 8.0 mph 72% 0.00 in
03:19 32.0 °F 24.3 °F 29.83 in NE 5.0 mph 7.0 mph 73% 0.00 in
03:24 31.9 °F 24.2 °F 29.83 in ENE 3.0 mph 7.0 mph 73% 0.00 in
03:29 32.0 °F 24.3 °F 29.83 in NE 3.0 mph 7.0 mph 73% 0.00 in
03:34 31.9 °F 24.2 °F 29.83 in NE 3.0 mph 7.0 mph 73% 0.00 in
03:39 32.0 °F 24.3 °F 29.83 in ENE 4.0 mph 5.0 mph 73% 0.00 in
03:44 31.9 °F 24.2 °F 29.83 in NE 5.0 mph 8.0 mph 73% 0.00 in
03:49 32.0 °F 24.3 °F 29.83 in NE 4.0 mph 8.0 mph 73% 0.00 in
03:54 32.0 °F 24.3 °F 29.83 in NE 3.0 mph 6.0 mph 73% 0.00 in
03:59 32.0 °F 24.6 °F 29.83 in NE 3.0 mph 7.0 mph 74% 0.00 in
04:04 32.1 °F 24.4 °F 29.82 in NE 4.0 mph 9.0 mph 73% 0.00 in
04:09 32.2 °F 24.5 °F 29.82 in NE 5.0 mph 9.0 mph 73% 0.00 in
04:14 32.3 °F 24.6 °F 29.82 in NE 3.0 mph 10.0 mph 73% 0.00 in
04:19 32.4 °F 24.7 °F 29.82 in NE 5.0 mph 10.0 mph 73% 0.00 in
04:24 32.5 °F 24.8 °F 29.82 in NNE 3.0 mph 10.0 mph 73% 0.00 in
04:29 32.6 °F 24.9 °F 29.82 in NE 4.0 mph 8.0 mph 73% 0.00 in
04:34 32.6 °F 24.9 °F 29.81 in NNE 4.0 mph 11.0 mph 73% 0.00 in
04:39 32.5 °F 25.1 °F 29.81 in NE 5.0 mph 9.0 mph 74% 0.00 in
04:44 32.3 °F 24.9 °F 29.82 in NNE 3.0 mph 7.0 mph 74% 0.00 in
04:49 32.2 °F 24.8 °F 29.82 in NE 3.0 mph 9.0 mph 74% 0.00 in
04:54 32.2 °F 24.8 °F 29.82 in NE 5.0 mph 11.0 mph 74% 0.00 in
04:59 32.1 °F 24.7 °F 29.82 in NE 5.0 mph 11.0 mph 74% 0.00 in
05:04 32.1 °F 25.1 °F 29.82 in NE 4.0 mph 8.0 mph 75% 0.00 in
05:09 31.9 °F 24.9 °F 29.82 in NE 5.0 mph 11.0 mph 75% 0.00 in
05:14 31.9 °F 24.9 °F 29.81 in NE 6.0 mph 11.0 mph 75% 0.00 in
05:19 31.8 °F 25.1 °F 29.81 in NE 4.0 mph 12.0 mph 76% 0.00 in
05:24 31.8 °F 25.4 °F 29.81 in NE 9.0 mph 12.0 mph 77% 0.00 in
05:29 31.7 °F 25.3 °F 29.80 in NE 6.0 mph 12.0 mph 77% 0.00 in
05:34 31.7 °F 25.3 °F 29.81 in NE 6.0 mph 12.0 mph 77% 0.00 in
05:39 31.7 °F 25.6 °F 29.81 in ENE 2.0 mph 10.0 mph 78% 0.00 in
05:44 31.7 °F 25.3 °F 29.80 in NE 6.0 mph 8.0 mph 77% 0.00 in
05:49 31.7 °F 25.3 °F 29.80 in ENE 7.0 mph 13.0 mph 77% 0.00 in
05:54 31.7 °F 25.3 °F 29.79 in ENE 8.0 mph 11.0 mph 77% 0.00 in
05:59 31.7 °F 25.3 °F 29.80 in NE 6.0 mph 11.0 mph 77% 0.00 in
06:04 31.8 °F 25.4 °F 29.80 in NE 5.0 mph 11.0 mph 77% 0.00 in
06:09 31.8 °F 25.4 °F 29.80 in NE 5.0 mph 11.0 mph 77% 0.00 in
06:14 31.8 °F 25.4 °F 29.80 in ENE 5.0 mph 13.0 mph 77% 0.00 in
06:19 31.8 °F 25.1 °F 29.80 in NE 3.0 mph 12.0 mph 76% 0.00 in
06:24 31.8 °F 25.1 °F 29.80 in NNE 7.0 mph 12.0 mph 76% 0.00 in
06:29 31.9 °F 25.5 °F 29.80 in ENE 4.0 mph 10.0 mph 77% 0.00 in
06:34 32.0 °F 25.3 °F 29.80 in ENE 4.0 mph 10.0 mph 76% 0.00 in
06:39 32.0 °F 25.6 °F 29.80 in ENE 4.0 mph 9.0 mph 77% 0.00 in
06:44 32.1 °F 25.7 °F 29.80 in ENE 4.0 mph 9.0 mph 77% 0.00 in
06:49 32.2 °F 25.8 °F 29.79 in NE 4.0 mph 11.0 mph 77% 0.00 in
06:54 32.3 °F 25.9 °F 29.79 in NE 5.0 mph 11.0 mph 77% 0.00 in
06:59 32.3 °F 25.6 °F 29.79 in ENE 5.0 mph 13.0 mph 76% 0.00 in
07:04 32.4 °F 25.7 °F 29.79 in NNE 5.0 mph 9.0 mph 76% 0.00 in
07:09 32.5 °F 25.8 °F 29.79 in ENE 5.0 mph 11.0 mph 76% 0.00 in
07:14 32.4 °F 25.4 °F 29.79 in ENE 6.0 mph 11.0 mph 75% 0.00 in
07:19 32.5 °F 25.5 °F 29.79 in NE 3.0 mph 8.0 mph 75% 0.00 in
07:24 32.5 °F 25.5 °F 29.78 in NE 7.0 mph 11.0 mph 75% 0.00 in
07:29 32.5 °F 25.5 °F 29.79 in ENE 5.0 mph 11.0 mph 75% 0.00 in
07:34 32.6 °F 25.6 °F 29.79 in NE 4.0 mph 8.0 mph 75% 0.00 in
07:39 32.7 °F 25.6 °F 29.78 in East 3.0 mph 10.0 mph 75% 0.00 in
07:44 32.7 °F 25.3 °F 29.78 in ENE 5.0 mph 11.0 mph 74% 0.00 in
07:49 32.7 °F 25.3 °F 29.78 in ENE 6.0 mph 13.0 mph 74% 0.00 in
07:54 32.7 °F 25.3 °F 29.77 in ENE 5.0 mph 13.0 mph 74% 0.00 in
07:59 32.8 °F 25.4 °F 29.77 in ENE 5.0 mph 11.0 mph 74% 0.00 in
08:04 32.9 °F 25.8 °F 29.77 in NE 4.0 mph 10.0 mph 75% 0.00 in
08:09 32.9 °F 25.8 °F 29.78 in NE 3.0 mph 11.0 mph 75% 0.00 in
08:14 33.0 °F 25.9 °F 29.78 in ENE 2.0 mph 6.0 mph 75% 0.00 in
08:19 33.0 °F 25.9 °F 29.78 in NE 4.0 mph 11.0 mph 75% 0.00 in
08:24 33.0 °F 25.9 °F 29.78 in NE 5.0 mph 11.0 mph 75% 0.00 in
08:29 33.0 °F 25.9 °F 29.78 in NE 6.0 mph 12.0 mph 75% 0.00 in
08:34 33.0 °F 25.6 °F 29.77 in NE 7.0 mph 13.0 mph 74% 0.00 in
08:39 33.0 °F 25.9 °F 29.77 in NE 7.0 mph 13.0 mph 75% 0.00 in
08:44 33.0 °F 25.6 °F 29.77 in NE 3.0 mph 11.0 mph 74% 0.00 in
08:49 33.0 °F 25.6 °F 29.76 in NE 9.0 mph 14.0 mph 74% 0.00 in
08:54 33.1 °F 25.7 °F 29.76 in ENE 4.0 mph 10.0 mph 74% 0.00 in
08:59 33.1 °F 26.0 °F 29.76 in NE 5.0 mph 11.0 mph 75% 0.00 in
09:04 33.0 °F 25.6 °F 29.75 in East 2.0 mph 11.0 mph 74% 0.00 in
09:09 33.2 °F 26.1 °F 29.75 in NNE 8.0 mph 12.0 mph 75% 0.00 in
09:14 33.1 °F 26.0 °F 29.75 in NE 5.0 mph 11.0 mph 75% 0.00 in
09:19 33.1 °F 26.0 °F 29.75 in NE 6.0 mph 11.0 mph 75% 0.00 in
09:24 33.1 °F 26.0 °F 29.74 in ENE 6.0 mph 13.0 mph 75% 0.00 in
09:29 33.2 °F 26.1 °F 29.74 in East 10.0 mph 11.0 mph 75% 0.00 in
09:34 33.2 °F 26.1 °F 29.73 in ENE 4.0 mph 13.0 mph 75% 0.00 in
09:39 33.2 °F 26.1 °F 29.73 in ESE 2.0 mph 8.0 mph 75% 0.00 in
09:44 33.1 °F 26.4 °F 29.72 in ENE 7.0 mph 11.0 mph 76% 0.00 in
09:49 33.1 °F 26.7 °F 29.72 in ENE 8.0 mph 12.0 mph 77% 0.00 in
09:54 33.0 °F 26.6 °F 29.71 in ENE 5.0 mph 12.0 mph 77% 0.00 in
09:59 33.0 °F 26.6 °F 29.71 in ENE 5.0 mph 11.0 mph 77% 0.00 in
10:04 33.1 °F 27.0 °F 29.71 in ENE 5.0 mph 10.0 mph 78% 0.00 in
10:09 33.2 °F 27.1 °F 29.71 in ESE 5.0 mph 10.0 mph 78% 0.00 in
10:14 33.2 °F 27.4 °F 29.71 in NNE 2.0 mph 6.0 mph 79% 0.00 in
10:19 33.0 °F 27.5 °F 29.71 in NE 5.0 mph 7.0 mph 80% 0.00 in
10:24 32.9 °F 27.4 °F 29.70 in NE 5.0 mph 13.0 mph 80% 0.00 in
10:29 32.8 °F 27.6 °F 29.70 in NE 6.0 mph 13.0 mph 81% 0.01 in
10:34 32.8 °F 27.9 °F 29.70 in NE 6.0 mph 13.0 mph 82% 0.01 in
10:39 32.8 °F 27.9 °F 29.70 in NE 6.0 mph 12.0 mph 82% 0.01 in
10:44 32.8 °F 27.9 °F 29.70 in NNE 5.0 mph 10.0 mph 82% 0.01 in
10:49 32.8 °F 28.2 °F 29.70 in NE 7.0 mph 10.0 mph 83% 0.01 in
10:54 32.8 °F 28.2 °F 29.69 in NNE 3.0 mph 10.0 mph 83% 0.01 in
10:59 32.7 °F 28.1 °F 29.69 in NE 6.0 mph 11.0 mph 83% 0.01 in
11:04 32.7 °F 28.4 °F 29.69 in NE 6.0 mph 11.0 mph 84% 0.02 in
11:09 32.6 °F 28.3 °F 29.68 in NNE 5.0 mph 13.0 mph 84% 0.03 in
11:14 32.4 °F 28.4 °F 29.68 in NE 6.0 mph 12.0 mph 85% 0.04 in
11:19 32.4 °F 28.7 °F 29.67 in ENE 4.0 mph 11.0 mph 86% 0.04 in
11:24 32.4 °F 28.7 °F 29.67 in ENE 8.0 mph 14.0 mph 86% 0.05 in
11:29 32.4 °F 29.0 °F 29.67 in ENE 5.0 mph 14.0 mph 87% 0.04 in
11:34 32.5 °F 29.1 °F 29.66 in ENE 5.0 mph 11.0 mph 87% 0.05 in
11:39 32.6 °F 29.4 °F 29.66 in ENE 5.0 mph 11.0 mph 88% 0.05 in
11:44 32.6 °F 29.4 °F 29.66 in ENE 6.0 mph 11.0 mph 88% 0.06 in
11:49 32.7 °F 29.5 °F 29.65 in ENE 3.0 mph 9.0 mph 88% 0.07 in
11:54 32.6 °F 29.4 °F 29.65 in NE 2.0 mph 8.0 mph 88% 0.07 in
11:59 32.6 °F 29.7 °F 29.64 in NE 4.0 mph 9.0 mph 89% 0.07 in
12:04 32.7 °F 29.8 °F 29.64 in NE 4.0 mph 9.0 mph 89% 0.07 in
12:09 32.8 °F 29.9 °F 29.63 in East 7.0 mph 8.0 mph 89% 0.06 in
12:14 32.8 °F 29.9 °F 29.63 in ENE 2.0 mph 8.0 mph 89% 0.05 in
12:19 32.8 °F 30.2 °F 29.62 in NE 2.0 mph 9.0 mph 90% 0.06 in
12:24 33.0 °F 30.4 °F 29.62 in NE 2.0 mph 8.0 mph 90% 0.05 in
12:29 33.1 °F 30.5 °F 29.62 in ENE 3.0 mph 8.0 mph 90% 0.06 in
12:34 33.2 °F 30.6 °F 29.61 in ENE 4.0 mph 8.0 mph 90% 0.06 in
12:39 33.3 °F 30.7 °F 29.61 in NE 5.0 mph 9.0 mph 90% 0.06 in
12:44 33.3 °F 30.7 °F 29.60 in ENE 5.0 mph 9.0 mph 90% 0.06 in
12:49 33.4 °F 31.1 °F 29.60 in NE 4.0 mph 9.0 mph 91% 0.05 in
12:54 33.4 °F 31.1 °F 29.59 in NE 4.0 mph 9.0 mph 91% 0.06 in
12:59 33.4 °F 31.1 °F 29.58 in NE 4.0 mph 8.0 mph 91% 0.07 in
13:04 33.4 °F 31.1 °F 29.58 in NE 5.0 mph 9.0 mph 91% 0.06 in
13:09 33.4 °F 31.1 °F 29.57 in NE 7.0 mph 10.0 mph 91% 0.07 in
13:14 33.4 °F 31.1 °F 29.56 in NE 7.0 mph 10.0 mph 91% 0.08 in
13:19 33.4 °F 31.1 °F 29.56 in East 7.0 mph 9.0 mph 91% 0.08 in
13:24 33.5 °F 31.2 °F 29.55 in ENE 2.0 mph 11.0 mph 91% 0.09 in
13:29 33.6 °F 31.5 °F 29.54 in NE 7.0 mph 8.0 mph 92% 0.09 in
13:34 33.8 °F 31.7 °F 29.53 in NE 2.0 mph 8.0 mph 92% 0.09 in
13:39 34.0 °F 31.9 °F 29.53 in NE 4.0 mph 8.0 mph 92% 0.09 in
13:44 34.1 °F 32.0 °F 29.52 in ENE 5.0 mph 8.0 mph 92% 0.08 in
13:49 34.3 °F 32.2 °F 29.51 in ENE 4.0 mph 10.0 mph 92% 0.09 in
13:54 34.4 °F 32.3 °F 29.51 in ENE 4.0 mph 10.0 mph 92% 0.08 in
13:59 34.7 °F 32.6 °F 29.50 in ENE 4.0 mph 8.0 mph 92% 0.07 in
14:04 34.9 °F 32.8 °F 29.50 in ENE 4.0 mph 8.0 mph 92% 0.07 in
14:09 35.1 °F 33.0 °F 29.50 in ENE 3.0 mph 6.0 mph 92% 0.06 in
14:14 35.3 °F 33.2 °F 29.50 in NE 3.0 mph 8.0 mph 92% 0.05 in
14:19 35.3 °F 33.2 °F 29.48 in NE 5.0 mph 7.0 mph 92% 0.04 in
14:24 35.5 °F 33.4 °F 29.49 in ENE 2.0 mph 8.0 mph 92% 0.04 in
14:29 35.7 °F 33.9 °F 29.48 in NE 5.0 mph 7.0 mph 93% 0.03 in
14:34 35.6 °F 33.5 °F 29.48 in NNE 4.0 mph 7.0 mph 92% 0.02 in
14:39 35.4 °F 33.3 °F 29.48 in East 5.0 mph 7.0 mph 92% 0.02 in
14:44 35.6 °F 33.5 °F 29.47 in ENE 3.0 mph 7.0 mph 92% 0.02 in
14:49 35.6 °F 33.5 °F 29.46 in ENE 3.0 mph 10.0 mph 92% 0.01 in
14:54 35.6 °F 33.5 °F 29.46 in NE 5.0 mph 10.0 mph 92% 0.01 in
14:59 35.6 °F 33.5 °F 29.45 in NE 4.0 mph 10.0 mph 92% 0.01 in
15:04 35.6 °F 33.5 °F 29.45 in NE 4.0 mph 8.0 mph 92% 0.02 in
15:09 35.6 °F 33.8 °F 29.44 in NE 4.0 mph 8.0 mph 93% 0.04 in
15:14 35.7 °F 33.9 °F 29.44 in NE 4.0 mph 7.0 mph 93% 0.05 in
15:19 35.8 °F 34.0 °F 29.43 in East 6.0 mph 8.0 mph 93% 0.05 in
15:24 35.9 °F 34.1 °F 29.43 in NE 2.0 mph 8.0 mph 93% 0.04 in
15:29 36.0 °F 34.2 °F 29.43 in NE 3.0 mph 8.0 mph 93% 0.05 in
15:34 36.2 °F 34.4 °F 29.43 in NE 3.0 mph 6.0 mph 93% 0.05 in
15:39 36.4 °F 34.6 °F 29.43 in NE 2.0 mph 5.0 mph 93% 0.05 in
15:44 36.7 °F 34.9 °F 29.43 in Calm   5.0 mph 93% 0.05 in
15:49 36.8 °F 35.0 °F 29.43 in NE 3.0 mph 3.0 mph 93% 0.05 in
15:54 37.0 °F 35.4 °F 29.42 in Calm   5.0 mph 94% 0.06 in
15:59 36.9 °F 35.1 °F 29.42 in NE 2.0 mph 6.0 mph 93% 0.07 in
16:04 36.8 °F 35.0 °F 29.42 in NE 2.0 mph 6.0 mph 93% 0.07 in
16:09 36.8 °F 35.2 °F 29.42 in NE 2.0 mph 4.0 mph 94% 0.05 in
16:14 37.0 °F 35.4 °F 29.41 in NE 2.0 mph 3.0 mph 94% 0.05 in
16:19 37.1 °F 35.5 °F 29.41 in ENE 1.0 mph 3.0 mph 94% 0.06 in
16:24 37.4 °F 35.8 °F 29.40 in ENE 1.0 mph 2.0 mph 94% 0.06 in
16:29 37.7 °F 36.1 °F 29.40 in ENE 2.0 mph 3.0 mph 94% 0.06 in
16:34 38.0 °F 36.4 °F 29.40 in ENE 1.0 mph 3.0 mph 94% 0.07 in
16:39 38.3 °F 36.7 °F 29.39 in ENE 1.0 mph 2.0 mph 94% 0.08 in
16:44 38.6 °F 37.0 °F 29.39 in Calm   2.0 mph 94% 0.09 in
16:49 38.8 °F 37.2 °F 29.39 in Calm     94% 0.09 in
16:54 39.3 °F 38.0 °F 29.38 in Calm     95% 0.09 in
16:59 39.7 °F 38.4 °F 29.38 in Calm     95% 0.09 in
17:04 40.6 °F 39.3 °F 29.38 in SSE 1.0 mph 3.0 mph 95% 0.08 in
17:09 41.6 °F 40.3 °F 29.38 in SSE 1.0 mph 4.0 mph 95% 0.09 in
17:14 43.5 °F 42.4 °F 29.37 in South 2.0 mph 5.0 mph 96% 0.08 in
17:19 45.3 °F 44.2 °F 29.37 in South 3.0 mph 7.0 mph 96% 0.08 in
17:24 46.7 °F 45.6 °F 29.36 in South 4.0 mph 9.0 mph 96% 0.08 in
17:29 48.0 °F 46.9 °F 29.36 in South 5.0 mph 11.0 mph 96% 0.08 in
17:34 48.7 °F 47.6 °F 29.36 in SSW 5.0 mph 11.0 mph 96% 0.08 in
17:39 49.1 °F 48.0 °F 29.36 in SSW 6.0 mph 15.0 mph 96% 0.07 in
17:44 49.4 °F 48.3 °F 29.36 in SW 12.0 mph 13.0 mph 96% 0.07 in
17:49 49.7 °F 48.3 °F 29.36 in WSW 11.0 mph 15.0 mph 95% 0.08 in
17:54 49.9 °F 48.5 °F 29.35 in SSE 8.0 mph 15.0 mph 95% 0.08 in
17:59 50.0 °F 48.6 °F 29.35 in SSW 7.0 mph 12.0 mph 95% 0.07 in
18:04 50.1 °F 48.4 °F 29.35 in South 5.0 mph 11.0 mph 94% 0.07 in
18:09 50.3 °F 48.6 °F 29.35 in South 6.0 mph 13.0 mph 94% 0.06 in
18:14 50.5 °F 48.8 °F 29.35 in South 8.0 mph 14.0 mph 94% 0.07 in
18:19 50.6 °F 48.9 °F 29.35 in SSW 7.0 mph 14.0 mph 94% 0.06 in
18:24 50.7 °F 49.0 °F 29.35 in SSW 7.0 mph 14.0 mph 94% 0.06 in
18:29 50.9 °F 48.9 °F 29.35 in SSW 8.0 mph 17.0 mph 93% 0.05 in
18:34 51.1 °F 49.1 °F 29.34 in SSW 8.0 mph 17.0 mph 93% 0.04 in
18:39 51.3 °F 49.3 °F 29.34 in SSW 8.0 mph 18.0 mph 93% 0.04 in
18:44 51.6 °F 49.4 °F 29.34 in SW 8.0 mph 18.0 mph 92% 0.04 in
18:49 51.8 °F 49.3 °F 29.34 in SSW 6.0 mph 14.0 mph 91% 0.03 in
18:54 52.1 °F 49.6 °F 29.34 in SSW 8.0 mph 18.0 mph 91% 0.02 in
18:59 52.2 °F 49.4 °F 29.34 in South 5.0 mph 14.0 mph 90% 0.02 in
19:04 52.3 °F 49.5 °F 29.34 in SSE 11.0 mph 16.0 mph 90% 0.03 in
19:09 52.4 °F 49.3 °F 29.33 in SSW 4.0 mph 20.0 mph 89% 0.03 in
19:14 52.4 °F 49.3 °F 29.33 in SSW 5.0 mph 16.0 mph 89% 0.02 in
19:19 52.5 °F 49.4 °F 29.33 in SW 8.0 mph 17.0 mph 89% 0.02 in
19:24 52.4 °F 49.3 °F 29.33 in SSW 4.0 mph 17.0 mph 89% 0.03 in
19:29 52.5 °F 49.4 °F 29.33 in SSW 8.0 mph 17.0 mph 89% 0.03 in
19:34 52.7 °F 49.2 °F 29.33 in SSW 8.0 mph 15.0 mph 88% 0.03 in
19:39 52.6 °F 49.4 °F 29.33 in SSW 7.0 mph 17.0 mph 89% 0.03 in
19:44 52.8 °F 49.6 °F 29.33 in SSW 7.0 mph 20.0 mph 89% 0.02 in
19:49 53.0 °F 49.8 °F 29.33 in SSW 8.0 mph 24.0 mph 89% 0.03 in
19:54 53.0 °F 49.8 °F 29.32 in SSW 8.0 mph 24.0 mph 89% 0.03 in
19:59 53.0 °F 49.8 °F 29.32 in SW 7.0 mph 16.0 mph 89% 0.04 in
20:04 53.1 °F 49.9 °F 29.32 in South 6.0 mph 17.0 mph 89% 0.03 in
20:09 53.1 °F 49.6 °F 29.32 in SSW 9.0 mph 13.0 mph 88% 0.03 in
20:14 53.2 °F 49.7 °F 29.31 in SSW 9.0 mph 14.0 mph 88% 0.03 in
20:19 53.2 °F 49.7 °F 29.31 in South 16.0 mph 16.0 mph 88% 0.04 in
20:24 53.4 °F 49.9 °F 29.31 in ESE 5.0 mph 16.0 mph 88% 0.03 in
20:29 53.4 °F 49.9 °F 29.31 in SSW 6.0 mph 15.0 mph 88% 0.03 in
20:34 53.5 °F 50.0 °F 29.31 in SSW 8.0 mph 12.0 mph 88% 0.03 in
20:39 53.5 °F 50.0 °F 29.31 in SSW 7.0 mph 18.0 mph 88% 0.03 in
20:44 53.8 °F 50.0 °F 29.30 in SSW 8.0 mph 18.0 mph 87% 0.03 in
20:49 54.1 °F 50.3 °F 29.30 in SSW 9.0 mph 16.0 mph 87% 0.02 in
20:54 54.0 °F 50.2 °F 29.30 in SSW 8.0 mph 15.0 mph 87% 0.02 in
20:59 54.1 °F 50.0 °F 29.30 in SSW 8.0 mph 22.0 mph 86% 0.01 in
21:04 53.9 °F 50.1 °F 29.29 in South 2.0 mph 14.0 mph 87% 0.03 in
21:09 53.8 °F 50.3 °F 29.29 in SSW 7.0 mph 17.0 mph 88% 0.04 in
21:14 53.7 °F 50.2 °F 29.30 in South 14.0 mph 16.0 mph 88% 0.04 in
21:19 53.7 °F 50.2 °F 29.30 in SW 12.0 mph 17.0 mph 88% 0.04 in
21:24 53.6 °F 50.1 °F 29.30 in South 9.0 mph 15.0 mph 88% 0.04 in
21:29 53.6 °F 50.4 °F 29.30 in SW 9.0 mph 18.0 mph 89% 0.04 in
21:34 53.6 °F 50.4 °F 29.30 in South 6.0 mph 22.0 mph 89% 0.04 in
21:39 53.7 °F 50.5 °F 29.30 in SW 16.0 mph 24.0 mph 89% 0.05 in
21:44 53.8 °F 50.3 °F 29.30 in SSW 9.0 mph 24.0 mph 88% 0.05 in
21:49 53.9 °F 50.4 °F 29.30 in SSW 9.0 mph 19.0 mph 88% 0.05 in
21:54 53.8 °F 50.3 °F 29.30 in SSW 8.0 mph 17.0 mph 88% 0.05 in
21:59 53.8 °F 50.3 °F 29.30 in SSW 7.0 mph 15.0 mph 88% 0.05 in
22:04 53.8 °F 50.3 °F 29.30 in SSW 7.0 mph 19.0 mph 88% 0.03 in
22:09 53.8 °F 50.0 °F 29.30 in SSW 7.0 mph 19.0 mph 87% 0.03 in
22:14 53.8 °F 50.3 °F 29.30 in SW 7.0 mph 17.0 mph 88% 0.02 in
22:19 53.7 °F 50.2 °F 29.30 in SSW 11.0 mph 17.0 mph 88% 0.02 in
22:24 53.9 °F 50.1 °F 29.29 in SSE 12.0 mph 21.0 mph 87% 0.02 in
22:29 54.2 °F 50.4 °F 29.30 in SSW 10.0 mph 25.0 mph 87% 0.02 in
22:34 54.3 °F 50.2 °F 29.30 in SW 11.0 mph 18.0 mph 86% 0.02 in
22:39 54.3 °F 50.2 °F 29.30 in SW 15.0 mph 15.0 mph 86% 0.01 in
22:44 54.5 °F 50.1 °F 29.30 in SW 10.0 mph 21.0 mph 85% 0.01 in
22:49 54.6 °F 50.2 °F 29.30 in SSW 7.0 mph 17.0 mph 85% 0.01 in
22:54 54.8 °F 50.1 °F 29.30 in SW 10.0 mph 26.0 mph 84% 0.01 in
22:59 54.8 °F 50.1 °F 29.30 in SW 11.0 mph 26.0 mph 84% 0.01 in
23:04 54.9 °F 49.8 °F 29.30 in SW 12.0 mph 22.0 mph 83% 0.01 in
23:09 55.1 °F 50.0 °F 29.30 in SW 13.0 mph 27.0 mph 83% 0.00 in
23:14 55.0 °F 49.9 °F 29.30 in WSW 11.0 mph 22.0 mph 83% 0.00 in
23:19 55.0 °F 49.9 °F 29.30 in WSW 11.0 mph 24.0 mph 83% 0.00 in
23:24 54.9 °F 49.8 °F 29.30 in SW 13.0 mph 25.0 mph 83% 0.00 in
23:29 54.9 °F 49.5 °F 29.30 in WSW 17.0 mph 26.0 mph 82% 0.00 in
23:34 54.9 °F 49.5 °F 29.30 in SW 13.0 mph 27.0 mph 82% 0.00 in
23:39 54.6 °F 49.9 °F 29.31 in WSW 19.0 mph 25.0 mph 84% 0.01 in
23:44 54.1 °F 49.1 °F 29.32 in WSW 9.0 mph 33.0 mph 83% 0.01 in
23:49 53.4 °F 48.4 °F 29.31 in WSW 15.0 mph 37.0 mph 83% 0.01 in
23:54 52.6 °F 47.9 °F 29.32 in West 9.0 mph 40.0 mph 84% 0.01 in
23:59 52.1 °F 47.4 °F 29.32 in WSW 15.0 mph 40.0 mph 84% 0.01 in
Buffalo, New York, USA
Compliments of Weather Underground - 2.5 mb